Details From LEAM - Almeria
To LELC - Murcia San Javier
Flight Number -
Tags decoded
Created
Modified
Stats Distance 98 nm / 181 km
Max Altitude 0 ft / 0 m
Waypoints 5
Social Downloads 0
Likes 0
Share VATSIM

Download

Looking for another format? Having issues loading an existing format? Contact us
Advertisement - Login to hide

Notes

Requested: LEAM AMR DINCO DIMER LELC

Route

LEAM AMR DINCO DIMER LELC

ID Type Via Altitude Latitude Longitude Leg Dist Tot Dist Heading (true) Name
O LEAM APT - 0 ft / 0 m 36.84393˚ -2.37010˚ - 0 nm - Almeria
AMR VOR - 0 ft / 0 m 36.83317˚ -2.25942˚ 5 nm 5 nm 97° / 97° ALMERIA VOR-DME
DINCO FIX - 0 ft / 0 m 37.25625˚ -1.28777˚ 53 nm 58 nm 61° / 62° -
DIMER FIX - 0 ft / 0 m 37.30623˚ -1.16859˚ 6 nm 64 nm 62° / 62° -
O LELC APT - 0 ft / 0 m 37.78026˚ -0.81226˚ 33 nm 97 nm 31° / 31° Murcia San Javier

Altitude Profile

Advertisement - Login to hide

LEAM

Details ICAO LEAM (LEI)
Name Almeria
Region Spain
Timezone Unknown (UTC+0.0)
Stats Elevation 70 ft / 21 m (AMSL)
Location 36.843935° -2.370097°
Runways 1
Magnetic Variation 0.238° W

METAR

LEAM 261400Z 22016KT CAVOK 23/14 Q1011

Decode

TAF

TAF LEAM 260800Z 2609/2709 21012KT 9999 FEW030 TX25/2614Z TN16/2705Z BECMG 2618/2621 VRB02KT

Decode

Departure Runways

ID Width Length Bearing (true) Bearing (mag) Surface Threshold Offset Overrun Length
08 148 ft / 45 m 10,484 ft / 3,196 m 72.94° 73.18° Asphalt 492 ft / 150 m 191 ft / 58 m
26 148 ft / 45 m 10,484 ft / 3,196 m 252.96° 253.20° Asphalt 0 ft / 0 m 150 ft / 46 m

LELC

Details ICAO LELC (MJV)
Name Murcia San Javier
Region Spain
Timezone Europe/Madrid (UTC+2.0)
Stats Elevation 11 ft / 3 m (AMSL)
Location 37.780256° -0.812257°
Runways 3
Magnetic Variation 0.169° E

METAR

LELC 261400Z 07007KT 030V120 9999 FEW011 23/18 Q1012 NOSIG

Decode

TAF

TAF LELC 261100Z 2612/2712 07010KT 9999 FEW015 TX25/2712Z TN15/2705Z BECMG 2619/2623 VRB02KT PROB30 TEMPO 2622/2706 4000 BR BECMG 2706/2709 15010KT

Decode

Destination Runways

ID Width Length Bearing (true) Bearing (mag) Surface Threshold Offset Overrun Length
05L 164 ft / 50 m 6,553 ft / 1,997 m 45.62° 45.45° Asphalt 656 ft / 200 m 0 ft / 0 m
05R 148 ft / 45 m 7,553 ft / 2,302 m 45.63° 45.46° Asphalt 0 ft / 0 m 656 ft / 200 m
14 197 ft / 60 m 2,657 ft / 810 m 136.05° 135.88° Grass 0 ft / 0 m 0 ft / 0 m
23L 148 ft / 45 m 7,553 ft / 2,302 m 225.65° 225.48° Asphalt 0 ft / 0 m 656 ft / 200 m
23R 164 ft / 50 m 6,553 ft / 1,997 m 225.63° 225.46° Asphalt 656 ft / 200 m 0 ft / 0 m
32 197 ft / 60 m 2,657 ft / 810 m 316.05° 315.88° Grass 0 ft / 0 m 0 ft / 0 m

Approach Navaids

Runway Type Ident Frequency Range Bearing (true) Bearing (mag) Slope Elevation
05R Localiser ISJ 110.50 MHz 18 nm / 33 km 45.68° 45.51° - 11 ft / 3 m (AMSL)
05R Glidescope ISJ 110.50 MHz 10 nm / 19 km 45.64° 45.47° 2.80° 11 ft / 3 m (AMSL)

Popular Alternatives